Time;durP1;ratioP1;P1;durP2;ratioP2;P2;SDS_P1;SDS_P2;PMS_P1;PMS_P2;Temp;Humidity;BMP_temperature;BMP_pressure;BME280_temperature;BME280_humidity;BME280_pressure;Samples;Min_cycle;Max_cycle;Signal;HPM_P1;HPM_P2
2021/07/20 00:00:22;;;;;;;16.60;9.75;;;19.50;95.50;;;;;;5035141;28;20582;-65
2021/07/20 00:02:52;;;;;;;18.58;9.90;;;19.20;95.80;;;;;;5035806;28;20103;-65
2021/07/20 00:05:23;;;;;;;14.27;9.02;;;19.20;96.10;;;;;;5053439;28;20428;-65
2021/07/20 00:07:57;;;;;;;13.45;8.70;;;19.30;95.90;;;;;;5035720;28;20041;-65
2021/07/20 00:10:30;;;;;;;14.77;9.25;;;19.10;96.10;;;;;;5035736;28;20036;-65
2021/07/20 00:12:55;;;;;;;12.82;8.95;;;19.20;96.40;;;;;;5052479;28;20025;-65
2021/07/20 00:15:21;;;;;;;13.25;9.05;;;19.30;96.50;;;;;;5053794;28;20085;-65
2021/07/20 00:17:49;;;;;;;12.43;8.63;;;19.30;96.10;;;;;;5035427;28;20120;-65
2021/07/20 00:20:17;;;;;;;12.90;9.15;;;19.30;96.10;;;;;;5053395;28;20150;-65
2021/07/20 00:22:44;;;;;;;12.13;8.77;;;19.30;96.10;;;;;;5035309;28;20029;-65
2021/07/20 00:25:11;;;;;;;15.63;9.13;;;19.30;96.20;;;;;;5052200;28;20029;-65
2021/07/20 00:27:37;;;;;;;14.07;9.15;;;19.20;96.40;;;;;;5035141;28;20032;-65
2021/07/20 00:30:05;;;;;;;19.20;9.77;;;19.30;96.50;;;;;;5034516;28;20025;-66
2021/07/20 00:32:31;;;;;;;12.57;8.77;;;19.00;96.60;;;;;;5052942;28;20025;-66
2021/07/20 00:34:57;;;;;;;12.57;9.07;;;19.10;96.90;;;;;;5034507;28;20115;-66
2021/07/20 00:37:23;;;;;;;15.13;9.38;;;19.00;97.10;;;;;;5052597;28;20108;-66
2021/07/20 00:39:48;;;;;;;13.63;9.82;;;18.90;97.30;;;;;;5051708;28;20033;-65
2021/07/20 00:42:14;;;;;;;27.88;9.43;;;18.90;97.60;;;;;;5052023;28;20057;-65
2021/07/20 00:44:40;;;;;;;13.80;9.25;;;18.90;97.70;;;;;;5053473;28;20521;-66
2021/07/20 00:47:06;;;;;;;17.42;9.75;;;18.90;97.60;;;;;;5052450;28;20029;-66
2021/07/20 00:49:31;;;;;;;13.75;9.95;;;18.80;97.70;;;;;;5052466;28;20489;-65
2021/07/20 00:51:57;;;;;;;11.88;8.50;;;18.90;97.60;;;;;;5051730;28;20107;-65
2021/07/20 00:54:23;;;;;;;14.98;9.55;;;18.90;97.90;;;;;;5052194;28;20044;-66
2021/07/20 00:56:50;;;;;;;15.07;8.82;;;18.90;97.80;;;;;;5052356;28;20463;-67
2021/07/20 00:59:16;;;;;;;14.38;9.30;;;18.90;97.90;;;;;;5017523;28;20048;-67
2021/07/20 01:01:42;;;;;;;12.55;9.48;;;18.80;97.90;;;;;;5034645;28;20419;-66
2021/07/20 01:04:08;;;;;;;16.30;9.45;;;18.80;97.90;;;;;;5051983;28;20035;-66
2021/07/20 01:06:34;;;;;;;13.00;10.02;;;18.90;98.00;;;;;;5052070;28;20029;-65
2021/07/20 01:09:03;;;;;;;13.27;9.90;;;18.90;98.10;;;;;;5051560;28;20033;-67
2021/07/20 01:11:33;;;;;;;13.57;9.48;;;18.90;98.10;;;;;;5052219;28;20037;-66
2021/07/20 01:14:01;;;;;;;11.75;8.95;;;18.90;98.10;;;;;;5033682;28;20025;-66
2021/07/20 01:16:29;;;;;;;13.93;8.82;;;18.80;98.30;;;;;;5052288;28;20140;-66
2021/07/20 01:18:55;;;;;;;13.70;9.15;;;18.80;98.40;;;;;;5033421;28;20072;-70
2021/07/20 01:21:22;;;;;;;14.57;9.30;;;18.80;98.40;;;;;;5034055;28;20064;-66
2021/07/20 01:23:50;;;;;;;15.30;9.43;;;18.90;98.40;;;;;;5033958;28;20032;-66
2021/07/20 01:26:16;;;;;;;11.88;8.90;;;18.80;98.40;;;;;;5051215;28;20025;-66
2021/07/20 01:28:45;;;;;;;12.25;9.70;;;18.70;98.70;;;;;;5033914;28;20387;-66
2021/07/20 01:31:17;;;;;;;13.88;8.95;;;18.80;98.60;;;;;;5032921;28;20035;-66
2021/07/20 01:33:51;;;;;;;13.52;9.02;;;18.80;98.80;;;;;;5033755;28;20408;-66
2021/07/20 01:36:18;;;;;;;14.13;9.38;;;18.80;98.70;;;;;;5033242;28;20025;-66
2021/07/20 01:38:44;;;;;;;12.35;9.02;;;18.80;98.50;;;;;;5051456;28;20029;-66
2021/07/20 01:41:16;;;;;;;14.25;9.55;;;18.80;98.50;;;;;;5050782;28;20083;-65
2021/07/20 01:43:45;;;;;;;14.45;8.75;;;18.70;98.80;;;;;;5033968;28;20446;-66
2021/07/20 01:46:12;;;;;;;15.32;10.60;;;18.70;99.00;;;;;;5032984;28;20116;-66
2021/07/20 01:48:41;;;;;;;14.85;9.23;;;18.70;98.90;;;;;;5051238;28;20086;-66
2021/07/20 01:51:07;;;;;;;14.40;9.48;;;18.70;99.00;;;;;;5032085;28;20032;-67
2021/07/20 01:53:34;;;;;;;13.68;10.35;;;18.60;99.00;;;;;;5051459;28;20330;-66
2021/07/20 01:56:01;;;;;;;15.43;10.05;;;18.60;99.10;;;;;;5050924;28;20059;-66
2021/07/20 01:58:27;;;;;;;16.08;9.82;;;18.60;99.10;;;;;;5051338;28;20540;-66
2021/07/20 02:00:57;;;;;;;16.38;10.90;;;18.50;99.50;;;;;;5033437;28;20413;-66
2021/07/20 02:08:55;;;;;;;15.02;9.55;;;18.50;99.60;;;;;;5031432;28;20044;-66
2021/07/20 02:11:28;;;;;;;20.45;9.90;;;18.50;99.60;;;;;;5012757;28;20467;-66
2021/07/20 02:14:01;;;;;;;23.92;10.45;;;18.50;99.50;;;;;;5031219;28;20032;-67
2021/07/20 02:16:29;;;;;;;13.75;10.05;;;18.60;99.80;;;;;;5031302;28;20032;-66
2021/07/20 02:19:12;;;;;;;20.35;10.50;;;18.50;99.80;;;;;;5030741;28;20061;-65
2021/07/20 02:21:47;;;;;;;13.80;9.70;;;18.50;99.90;;;;;;5030892;28;20048;-66
2021/07/20 02:24:15;;;;;;;12.50;8.80;;;18.50;99.90;;;;;;5012618;28;20026;-68
2021/07/20 02:26:42;;;;;;;12.45;9.02;;;18.40;99.90;;;;;;5031008;28;20025;-66
2021/07/20 02:29:10;;;;;;;16.23;9.98;;;18.30;99.90;;;;;;5030199;28;20091;-67
2021/07/20 02:31:36;;;;;;;13.25;9.75;;;18.40;99.90;;;;;;5031329;28;20037;-66
2021/07/20 02:34:03;;;;;;;15.50;9.77;;;18.40;99.90;;;;;;5012703;28;20026;-66
2021/07/20 02:36:31;;;;;;;14.02;10.20;;;18.20;99.90;;;;;;5013488;28;20038;-65
2021/07/20 02:38:57;;;;;;;17.73;10.27;;;18.20;99.90;;;;;;5030628;28;20044;-66
2021/07/20 02:41:25;;;;;;;15.18;9.38;;;18.30;99.90;;;;;;5030025;28;20033;-66
2021/07/20 02:43:52;;;;;;;16.20;9.52;;;18.20;99.90;;;;;;5013050;28;20332;-65
2021/07/20 02:46:18;;;;;;;15.18;9.52;;;18.30;99.90;;;;;;5030375;28;20455;-66
2021/07/20 02:48:45;;;;;;;14.02;9.30;;;18.20;99.90;;;;;;5013088;28;20040;-65
2021/07/20 02:51:11;;;;;;;11.95;9.18;;;18.30;99.90;;;;;;5030107;28;20025;-66
2021/07/20 02:53:40;;;;;;;15.82;10.40;;;18.30;99.90;;;;;;5012930;28;20463;-65
2021/07/20 02:56:08;;;;;;;16.00;10.18;;;18.20;99.90;;;;;;5030411;28;20061;-66
2021/07/20 02:58:36;;;;;;;15.25;10.48;;;18.30;99.90;;;;;;5013342;28;20036;-67
2021/07/20 03:01:03;;;;;;;16.95;10.35;;;18.20;99.90;;;;;;5030399;28;20037;-67
2021/07/20 03:03:29;;;;;;;12.93;10.15;;;18.20;99.90;;;;;;5034099;28;20162;-67
2021/07/20 03:05:56;;;;;;;16.88;9.45;;;18.10;99.90;;;;;;5016629;28;20029;-67
2021/07/20 03:08:28;;;;;;;15.35;9.95;;;18.20;99.90;;;;;;5034604;28;20379;-67
2021/07/20 03:10:56;;;;;;;14.88;10.50;;;18.10;99.90;;;;;;5034672;28;20383;-67
2021/07/20 03:13:24;;;;;;;15.40;10.45;;;18.10;99.90;;;;;;5034898;28;20029;-66
2021/07/20 03:15:50;;;;;;;14.23;9.75;;;18.10;99.90;;;;;;5017619;28;20036;-66
2021/07/20 03:18:17;;;;;;;17.02;10.73;;;18.10;99.90;;;;;;5016543;28;20026;-66
2021/07/20 03:20:44;;;;;;;15.45;10.93;;;18.10;99.90;;;;;;5016767;28;20104;-66
2021/07/20 03:23:11;;;;;;;14.98;9.82;;;18.10;99.90;;;;;;5034097;28;20030;-65
2021/07/20 03:25:37;;;;;;;22.48;11.10;;;18.00;99.90;;;;;;5016963;28;20087;-67
2021/07/20 03:28:05;;;;;;;17.15;11.30;;;18.00;99.90;;;;;;5015879;28;20439;-66
2021/07/20 03:30:32;;;;;;;18.38;11.00;;;18.00;99.90;;;;;;5016465;28;20426;-67
2021/07/20 03:33:01;;;;;;;15.70;10.45;;;17.90;99.90;;;;;;5034018;28;20116;-68
2021/07/20 03:35:27;;;;;;;14.05;9.68;;;17.90;99.90;;;;;;5033682;28;20029;-67
2021/07/20 03:37:54;;;;;;;15.65;10.38;;;17.70;99.90;;;;;;5034325;28;20037;-66
2021/07/20 03:40:20;;;;;;;12.23;9.65;;;17.80;99.90;;;;;;5033433;28;20029;-66
2021/07/20 03:42:46;;;;;;;13.00;8.85;;;17.80;99.90;;;;;;5016181;28;20025;-67
2021/07/20 03:45:13;;;;;;;18.88;10.13;;;17.90;99.90;;;;;;5033210;28;20057;-66
2021/07/20 03:47:42;;;;;;;13.68;9.13;;;17.90;99.90;;;;;;5033840;28;20088;-66
2021/07/20 03:50:09;;;;;;;13.50;10.07;;;17.90;99.90;;;;;;5032976;28;20087;-67
2021/07/20 03:52:38;;;;;;;15.48;10.38;;;17.90;99.90;;;;;;5033767;28;20025;-67
2021/07/20 03:55:07;;;;;;;16.20;10.18;;;17.80;99.90;;;;;;5032515;28;20132;-73
2021/07/20 03:57:34;;;;;;;14.15;9.65;;;17.80;99.90;;;;;;5053582;28;20098;-68
2021/07/20 04:00:01;;;;;;;18.92;10.82;;;17.80;99.90;;;;;;5052619;28;20052;-67
2021/07/20 04:02:45;;;;;;;18.38;10.88;;;17.90;99.90;;;;;;5051599;28;20367;-67
2021/07/20 04:05:12;;;;;;;15.38;9.80;;;17.80;99.90;;;;;;5052857;28;20021;-68
2021/07/20 04:07:39;;;;;;;13.68;9.45;;;17.70;99.90;;;;;;5053480;28;20170;-67
2021/07/20 04:10:05;;;;;;;15.65;10.93;;;17.80;99.90;;;;;;5050822;28;20028;-71
2021/07/20 04:12:33;;;;;;;15.57;9.60;;;17.70;99.90;;;;;;5054075;28;20021;-67
2021/07/20 04:14:59;;;;;;;14.10;9.48;;;17.60;99.90;;;;;;5051115;28;20021;-66
2021/07/20 04:17:26;;;;;;;16.52;10.75;;;17.60;99.90;;;;;;5050532;28;20044;-66
2021/07/20 04:19:52;;;;;;;14.88;9.55;;;17.50;99.90;;;;;;5053064;28;20163;-68
2021/07/20 04:22:17;;;;;;;16.83;10.27;;;17.40;99.90;;;;;;5052331;28;20444;-66
2021/07/20 04:24:44;;;;;;;18.20;9.48;;;17.40;99.90;;;;;;5068463;28;20363;-69
2021/07/20 04:27:10;;;;;;;15.68;9.93;;;17.50;99.90;;;;;;5052563;28;20067;-67
2021/07/20 04:29:35;;;;;;;21.02;10.40;;;17.50;99.90;;;;;;5051610;28;20056;-66
2021/07/20 04:32:04;;;;;;;16.20;10.05;;;17.50;99.90;;;;;;5052871;28;20057;-66
2021/07/20 04:34:35;;;;;;;19.13;10.57;;;17.50;99.90;;;;;;5052500;28;20423;-66
2021/07/20 04:37:03;;;;;;;14.57;10.20;;;17.40;99.90;;;;;;5051369;28;20036;-67
2021/07/20 04:39:31;;;;;;;13.07;9.70;;;17.60;99.90;;;;;;5052434;28;20139;-66
2021/07/20 04:41:57;;;;;;;17.80;11.00;;;17.50;99.90;;;;;;5052583;28;20068;-65
2021/07/20 04:44:23;;;;;;;16.25;9.43;;;17.50;99.90;;;;;;5052952;28;20067;-66
2021/07/20 04:46:49;;;;;;;15.98;10.77;;;17.40;99.90;;;;;;5051444;28;20025;-66
2021/07/20 04:49:15;;;;;;;17.80;11.02;;;17.50;99.90;;;;;;5067450;28;20033;-66
2021/07/20 04:51:43;;;;;;;26.35;11.48;;;17.30;99.90;;;;;;5052809;28;20108;-68
2021/07/20 04:54:10;;;;;;;15.77;10.25;;;17.50;99.90;;;;;;5047536;28;20050;-68
2021/07/20 04:56:35;;;;;;;14.52;9.82;;;17.60;99.90;;;;;;5032657;28;20029;-66
2021/07/20 04:59:01;;;;;;;16.90;10.23;;;17.80;99.90;;;;;;5031064;28;20030;-67
2021/07/20 05:01:29;;;;;;;19.20;10.75;;;17.70;99.90;;;;;;5031855;28;20254;-66
2021/07/20 05:03:57;;;;;;;15.43;9.32;;;17.80;99.90;;;;;;5032698;28;20040;-66
2021/07/20 05:06:25;;;;;;;15.68;9.27;;;17.90;99.90;;;;;;5014257;28;20528;-66
2021/07/20 05:08:51;;;;;;;19.98;10.93;;;18.00;99.90;;;;;;5014883;28;20055;-66
2021/07/20 05:11:20;;;;;;;15.60;10.05;;;18.00;99.90;;;;;;5031879;28;20502;-66
2021/07/20 05:13:46;;;;;;;18.48;11.15;;;17.90;99.90;;;;;;5032365;28;20076;-66
2021/07/20 05:16:12;;;;;;;16.98;10.38;;;17.90;99.90;;;;;;5031990;28;20450;-67
2021/07/20 05:18:38;;;;;;;18.58;10.48;;;17.90;99.90;;;;;;5031943;28;20459;-66
2021/07/20 05:21:05;;;;;;;17.85;10.57;;;17.90;99.90;;;;;;5014229;28;20048;-68
2021/07/20 05:23:33;;;;;;;14.48;9.50;;;18.00;99.90;;;;;;5030909;28;20029;-66
2021/07/20 05:25:59;;;;;;;21.05;10.73;;;18.00;99.90;;;;;;5031528;28;20033;-66
2021/07/20 05:28:27;;;;;;;17.05;10.38;;;18.20;99.90;;;;;;5012839;28;20037;-67
2021/07/20 05:31:01;;;;;;;17.88;11.75;;;18.20;99.90;;;;;;5013614;28;20029;-66
2021/07/20 05:33:28;;;;;;;15.07;9.73;;;18.20;99.90;;;;;;5031256;28;20064;-66
2021/07/20 05:35:58;;;;;;;18.60;10.15;;;18.30;99.90;;;;;;5013802;28;20031;-66
2021/07/20 05:38:25;;;;;;;20.00;11.07;;;18.30;99.90;;;;;;5012797;28;20029;-66
2021/07/20 05:40:54;;;;;;;14.05;10.57;;;18.20;99.90;;;;;;5013560;28;20068;-66
2021/07/20 05:43:20;;;;;;;16.50;10.38;;;18.30;99.90;;;;;;5031162;28;20041;-67
2021/07/20 05:45:46;;;;;;;15.60;9.63;;;18.50;99.90;;;;;;5013562;28;20033;-69
2021/07/20 05:48:20;;;;;;;16.00;11.52;;;18.60;99.90;;;;;;5013068;28;20094;-68
2021/07/20 05:50:54;;;;;;;22.38;11.95;;;18.50;99.90;;;;;;5013510;28;20021;-67
2021/07/20 05:53:22;;;;;;;18.00;11.40;;;18.50;99.90;;;;;;5012766;28;20040;-68
2021/07/20 05:55:55;;;;;;;18.80;12.32;;;18.50;99.90;;;;;;5031019;28;20042;-67
2021/07/20 05:58:22;;;;;;;17.20;10.43;;;18.60;99.90;;;;;;5030811;28;20029;-67
2021/07/20 06:00:49;;;;;;;13.82;10.10;;;18.70;99.90;;;;;;5029649;28;20026;-68
2021/07/20 06:03:17;;;;;;;17.98;10.90;;;18.70;99.90;;;;;;5029439;28;20033;-69
2021/07/20 06:05:49;;;;;;;20.63;11.98;;;18.80;99.90;;;;;;5012430;28;20109;-67
2021/07/20 06:08:17;;;;;;;15.70;10.10;;;18.90;99.90;;;;;;5028921;28;20029;-68
2021/07/20 06:10:46;;;;;;;19.27;10.63;;;19.00;99.90;;;;;;5012219;28;20511;-66
2021/07/20 06:13:12;;;;;;;13.95;9.77;;;19.10;99.90;;;;;;5030121;28;20037;-67
2021/07/20 06:15:44;;;;;;;15.63;10.75;;;19.10;99.90;;;;;;5012168;28;20120;-67
2021/07/20 06:18:09;;;;;;;13.55;9.93;;;19.00;99.90;;;;;;5030239;28;20430;-68
2021/07/20 06:20:36;;;;;;;19.10;11.52;;;19.10;99.90;;;;;;5029535;28;20029;-67
2021/07/20 06:23:02;;;;;;;18.67;10.95;;;19.00;99.90;;;;;;5030235;28;20115;-67
2021/07/20 06:25:29;;;;;;;15.30;11.20;;;18.90;99.90;;;;;;5011972;28;20033;-66
2021/07/20 06:27:57;;;;;;;19.70;9.95;;;19.00;99.90;;;;;;5012539;28;20044;-67
2021/07/20 06:30:23;;;;;;;13.65;10.15;;;19.20;99.90;;;;;;5011895;28;20393;-67
2021/07/20 06:32:51;;;;;;;19.77;9.55;;;19.30;99.90;;;;;;5030496;28;20025;-67
2021/07/20 06:35:18;;;;;;;14.13;9.82;;;19.10;99.90;;;;;;5012175;28;20116;-67
2021/07/20 06:37:49;;;;;;;16.50;9.70;;;19.30;99.90;;;;;;5032495;28;20029;-68
2021/07/20 06:40:19;;;;;;;13.93;9.27;;;19.10;99.90;;;;;;5015416;28;20029;-68
2021/07/20 06:42:46;;;;;;;16.42;9.55;;;19.20;99.90;;;;;;5034453;28;20034;-67
2021/07/20 06:45:14;;;;;;;15.02;10.25;;;19.30;99.90;;;;;;5016444;28;20422;-73
2021/07/20 06:47:42;;;;;;;15.30;9.13;;;19.40;99.90;;;;;;5017269;28;20084;-65
2021/07/20 06:50:09;;;;;;;17.02;9.73;;;19.50;99.90;;;;;;5035186;28;20025;-66
2021/07/20 06:52:35;;;;;;;14.30;8.80;;;19.60;99.90;;;;;;5034376;28;20061;-67
2021/07/20 06:55:02;;;;;;;16.20;9.30;;;19.70;99.90;;;;;;5032590;28;20539;-66
2021/07/20 06:57:28;;;;;;;13.70;9.02;;;19.80;99.90;;;;;;5052267;28;20066;-66
2021/07/20 06:59:56;;;;;;;16.73;9.95;;;20.00;99.90;;;;;;5054059;28;20111;-67
2021/07/20 07:02:23;;;;;;;13.38;9.07;;;19.90;99.60;;;;;;5053501;28;20167;-66
2021/07/20 07:04:57;;;;;;;16.00;9.57;;;19.90;99.60;;;;;;5054366;28;20132;-66
2021/07/20 07:07:24;;;;;;;12.68;8.68;;;20.00;99.40;;;;;;5052799;28;20131;-66
2021/07/20 07:09:50;;;;;;;13.32;8.27;;;20.00;99.30;;;;;;5053547;28;20029;-68
2021/07/20 07:12:19;;;;;;;15.88;8.70;;;20.10;99.00;;;;;;5052229;28;20485;-67
2021/07/20 07:14:45;;;;;;;12.73;8.25;;;20.30;98.90;;;;;;5053072;28;20024;-67
2021/07/20 07:17:11;;;;;;;11.65;8.23;;;20.40;98.50;;;;;;5053605;28;20026;-66
2021/07/20 07:19:39;;;;;;;19.08;10.02;;;20.50;98.40;;;;;;5053503;28;20021;-66
2021/07/20 07:22:05;;;;;;;14.27;9.45;;;20.40;98.50;;;;;;5054082;28;20025;-68
2021/07/20 07:24:32;;;;;;;11.32;7.18;;;20.40;98.10;;;;;;5051509;28;20381;-60
2021/07/20 07:27:00;;;;;;;14.25;7.93;;;20.80;99.90;;;;;;5052257;28;20117;-59
2021/07/20 07:29:27;;;;;;;11.07;8.13;;;21.00;99.20;;;;;;5051655;28;20028;-58
2021/07/20 07:31:54;;;;;;;12.13;8.00;;;21.40;98.30;;;;;;5053460;28;20027;-59
2021/07/20 07:34:20;;;;;;;15.35;7.82;;;21.20;96.30;;;;;;5053435;28;20036;-59
2021/07/20 07:36:47;;;;;;;10.20;7.50;;;21.50;97.80;;;;;;5054415;28;20021;-60
2021/07/20 07:39:15;;;;;;;11.07;6.60;;;21.80;98.80;;;;;;5052780;28;20025;-59
2021/07/20 07:41:45;;;;;;;14.10;8.20;;;22.00;98.20;;;;;;5053864;28;20029;-59
2021/07/20 07:44:14;;;;;;;11.10;7.03;;;22.10;96.60;;;;;;5053662;28;20147;-59
2021/07/20 07:46:41;;;;;;;14.15;7.35;;;22.10;96.40;;;;;;5051186;28;20387;-62
2021/07/20 07:49:11;;;;;;;9.30;6.97;;;22.50;98.50;;;;;;5053417;28;20025;-62
2021/07/20 07:51:43;;;;;;;11.63;7.28;;;22.80;96.50;;;;;;5051443;28;20021;-62
2021/07/20 07:54:09;;;;;;;10.90;6.80;;;22.70;95.80;;;;;;5049132;28;20147;-62
2021/07/20 07:56:37;;;;;;;15.27;7.53;;;22.70;95.40;;;;;;5032991;28;20037;-64
2021/07/20 07:59:05;;;;;;;11.82;7.03;;;22.90;94.90;;;;;;5015691;28;20359;-65
2021/07/20 08:01:32;;;;;;;11.50;7.47;;;23.00;93.10;;;;;;5032980;28;20060;-66
2021/07/20 08:04:00;;;;;;;17.73;7.63;;;22.90;93.70;;;;;;5015440;28;20106;-66
2021/07/20 08:06:29;;;;;;;11.00;7.30;;;22.90;92.60;;;;;;5014973;28;20471;-67
2021/07/20 08:09:02;;;;;;;8.68;6.50;;;22.90;94.30;;;;;;5033112;28;20037;-68
2021/07/20 08:11:29;;;;;;;13.73;6.88;;;22.90;92.40;;;;;;5032376;28;20044;-67
2021/07/20 08:13:58;;;;;;;11.15;7.28;;;23.00;93.30;;;;;;5015240;28;20108;-67
2021/07/20 08:16:27;;;;;;;9.57;6.50;;;23.40;92.20;;;;;;5014552;28;20034;-67
2021/07/20 08:18:53;;;;;;;13.38;7.07;;;23.50;91.90;;;;;;5015293;28;20465;-66
2021/07/20 08:21:20;;;;;;;9.70;7.13;;;23.40;91.80;;;;;;5032523;28;20041;-65
2021/07/20 08:23:47;;;;;;;11.55;7.53;;;23.00;92.10;;;;;;5032884;28;20037;-67
2021/07/20 08:26:14;;;;;;;10.38;7.00;;;22.80;92.60;;;;;;5016203;28;20072;-65
2021/07/20 08:29:07;;;;;;;13.45;6.82;;;22.50;92.60;;;;;;5032471;28;20101;-66
2021/07/20 08:31:42;;;;;;;11.27;7.20;;;22.30;92.20;;;;;;5021607;28;20088;-65
2021/07/20 08:34:09;;;;;;;8.68;7.13;;;22.70;92.80;;;;;;5014607;28;20485;-66
2021/07/20 08:36:39;;;;;;;9.55;6.32;;;23.10;91.90;;;;;;5031991;28;20029;-65
2021/07/20 08:39:07;;;;;;;11.23;6.50;;;23.60;91.40;;;;;;5032400;28;20483;-66
2021/07/20 08:42:01;;;;;;;11.13;6.55;;;23.80;91.10;;;;;;5014097;28;20116;-65
2021/07/20 08:45:04;;;;;;;9.52;6.38;;;24.20;90.90;;;;;;5031794;28;20525;-66
2021/07/20 08:47:41;;;;;;;8.82;6.28;;;24.10;90.00;;;;;;5031589;28;20108;-65
2021/07/20 08:50:29;;;;;;;9.90;6.20;;;24.30;88.60;;;;;;5014224;28;20035;-65
2021/07/20 08:53:17;;;;;;;9.60;5.97;;;24.60;87.40;;;;;;5032229;28;20164;-67
2021/07/20 08:55:44;;;;;;;9.02;5.38;;;24.80;86.80;;;;;;5031060;28;20057;-68
2021/07/20 08:58:35;;;;;;;9.48;6.10;;;24.90;85.70;;;;;;5014290;28;20037;-66
2021/07/20 09:01:18;;;;;;;8.82;6.03;;;25.20;85.40;;;;;;5031527;28;20160;-66
2021/07/20 09:04:03;;;;;;;9.93;6.63;;;25.30;84.70;;;;;;5013040;28;20056;-65
2021/07/20 09:06:36;;;;;;;7.00;5.85;;;25.40;85.90;;;;;;5013555;28;20064;-66
2021/07/20 09:09:08;;;;;;;8.63;6.13;;;25.90;82.20;;;;;;5031920;28;20481;-65
2021/07/20 09:11:39;;;;;;;9.98;6.10;;;25.80;81.80;;;;;;5013261;28;20041;-68
2021/07/20 09:14:17;;;;;;;10.95;6.53;;;26.10;83.00;;;;;;5014470;28;20035;-65
2021/07/20 09:16:49;;;;;;;8.90;5.95;;;26.30;80.80;;;;;;5013529;28;20091;-65
2021/07/20 09:19:28;;;;;;;9.52;6.78;;;26.30;79.50;;;;;;5014151;28;20041;-65
2021/07/20 09:21:58;;;;;;;8.13;6.40;;;26.30;78.60;;;;;;5031942;28;20040;-65
2021/07/20 09:24:37;;;;;;;14.70;7.25;;;26.30;78.70;;;;;;5013357;28;20375;-66
2021/07/20 09:27:17;;;;;;;7.95;5.90;;;26.70;79.90;;;;;;5014489;28;20037;-67
2021/07/20 09:29:46;;;;;;;8.77;5.90;;;27.10;78.10;;;;;;5014139;28;20029;-66
2021/07/20 09:32:57;;;;;;;10.73;6.57;;;26.90;77.60;;;;;;5031378;28;20480;-67
2021/07/20 09:35:27;;;;;;;13.75;6.43;;;26.50;77.40;;;;;;5013282;28;20363;-67
2021/07/20 09:38:21;;;;;;;15.50;6.47;;;26.40;76.90;;;;;;5031642;28;20037;-66
2021/07/20 09:41:15;;;;;;;9.48;5.93;;;26.10;77.20;;;;;;5031252;28;20086;-65
2021/07/20 09:43:53;;;;;;;8.07;5.88;;;26.10;77.70;;;;;;5030956;28;20400;-67
2021/07/20 09:46:34;;;;;;;9.00;6.15;;;26.30;77.70;;;;;;5013650;28;20021;-67
2021/07/20 09:49:04;;;;;;;10.50;6.55;;;26.70;75.40;;;;;;5013625;28;20033;-66
2021/07/20 09:51:30;;;;;;;10.43;5.43;;;26.80;76.40;;;;;;5030673;28;20034;-67
2021/07/20 09:54:22;;;;;;;11.07;6.10;;;26.90;76.30;;;;;;5031663;28;20101;-65
2021/07/20 09:57:14;;;;;;;13.20;6.28;;;26.70;74.30;;;;;;5031081;28;20034;-65
2021/07/20 10:00:02;;;;;;;9.15;6.28;;;26.50;74.90;;;;;;5012981;28;20030;-66
2021/07/20 10:02:47;;;;;;;7.15;5.47;;;26.60;74.00;;;;;;5012863;28;20026;-66
2021/07/20 10:05:24;;;;;;;9.75;5.80;;;26.50;74.60;;;;;;5031134;28;20051;-65
2021/07/20 10:07:54;;;;;;;9.55;5.30;;;26.80;74.90;;;;;;5013755;28;20124;-66
2021/07/20 10:10:27;;;;;;;8.30;5.22;;;27.30;72.30;;;;;;5031451;28;20021;-66
2021/07/20 10:13:20;;;;;;;8.02;6.20;;;27.40;74.50;;;;;;5030929;28;20030;-65
2021/07/20 10:16:24;;;;;;;7.47;5.50;;;27.50;72.30;;;;;;5012794;28;20060;-66
2021/07/20 10:19:10;;;;;;;9.75;6.38;;;27.70;72.10;;;;;;5013666;28;20026;-65
2021/07/20 10:21:38;;;;;;;7.65;5.45;;;27.80;71.20;;;;;;5030279;28;20076;-66
2021/07/20 10:24:11;;;;;;;12.88;5.72;;;28.20;73.40;;;;;;5031738;28;20029;-66
2021/07/20 10:26:49;;;;;;;8.90;5.93;;;28.40;70.10;;;;;;5031236;28;20140;-67
2021/07/20 10:29:35;;;;;;;7.90;5.93;;;28.60;69.40;;;;;;5032155;28;20452;-66
2021/07/20 10:32:23;;;;;;;6.78;5.63;;;28.50;70.30;;;;;;5031399;28;20475;-68
2021/07/20 10:34:55;;;;;;;5.88;5.28;;;28.60;69.30;;;;;;5030538;28;20059;-66
2021/07/20 10:37:26;;;;;;;10.93;5.70;;;28.70;69.60;;;;;;5013366;28;20454;-67
2021/07/20 10:40:07;;;;;;;6.20;5.50;;;28.80;67.40;;;;;;4997894;28;20083;-66
2021/07/20 10:42:53;;;;;;;8.80;5.70;;;28.70;70.10;;;;;;5030841;28;20030;-66
2021/07/20 10:45:19;;;;;;;7.85;5.35;;;28.70;68.70;;;;;;5031085;28;20459;-66
2021/07/20 10:48:00;;;;;;;11.05;5.90;;;28.60;69.00;;;;;;5030602;28;20029;-67
2021/07/20 10:50:32;;;;;;;9.52;5.55;;;28.90;67.60;;;;;;5014469;28;20040;-66
2021/07/20 10:53:33;;;;;;;6.30;5.00;;;28.90;67.70;;;;;;5030834;28;20025;-65
2021/07/20 10:56:23;;;;;;;5.63;4.75;;;29.10;67.60;;;;;;5030425;28;20398;-66
2021/07/20 10:59:11;;;;;;;9.80;5.43;;;28.80;67.00;;;;;;5030019;28;20033;-65
2021/07/20 11:01:54;;;;;;;6.45;5.35;;;28.90;67.10;;;;;;5012139;28;20029;-67
2021/07/20 11:04:36;;;;;;;8.50;4.85;;;29.10;67.40;;;;;;5012501;28;20060;-66
2021/07/20 11:07:04;;;;;;;8.55;4.80;;;29.50;69.10;;;;;;5030857;28;20037;-66
2021/07/20 11:09:31;;;;;;;7.40;5.47;;;29.40;66.70;;;;;;5029465;28;20084;-66
2021/07/20 11:12:04;;;;;;;6.45;4.97;;;29.10;65.60;;;;;;5012398;28;20050;-65
2021/07/20 11:14:51;;;;;;;5.75;5.13;;;29.00;66.40;;;;;;5029514;28;20022;-67
2021/07/20 11:17:20;;;;;;;5.63;4.70;;;28.70;65.50;;;;;;5011442;28;20080;-65
2021/07/20 11:19:48;;;;;;;7.15;5.10;;;28.90;65.70;;;;;;5029517;28;20044;-66
2021/07/20 11:22:15;;;;;;;7.63;5.20;;;29.40;66.90;;;;;;5011855;28;20060;-65
2021/07/20 11:24:43;;;;;;;9.63;5.50;;;29.30;66.60;;;;;;5032818;28;20487;-67
2021/07/20 11:27:09;;;;;;;5.43;4.57;;;29.30;65.60;;;;;;5034483;28;20037;-67
2021/07/20 11:29:35;;;;;;;7.80;5.25;;;29.80;65.00;;;;;;5033503;28;20387;-67
2021/07/20 11:32:05;;;;;;;6.57;4.70;;;30.00;64.40;;;;;;5034531;28;20032;-66
2021/07/20 11:34:48;;;;;;;10.13;5.23;;;29.90;63.70;;;;;;5015469;28;20028;-66
2021/07/20 11:37:21;;;;;;;7.60;5.22;;;28.90;64.20;;;;;;5015666;28;20629;-66
2021/07/20 11:39:55;;;;;;;7.80;5.43;;;28.80;66.90;;;;;;5034033;28;20033;-65
2021/07/20 11:42:47;;;;;;;9.02;5.03;;;29.20;66.70;;;;;;5016943;28;20494;-65
2021/07/20 11:45:14;;;;;;;6.10;4.75;;;29.60;63.80;;;;;;5016319;28;20025;-66
2021/07/20 11:47:58;;;;;;;8.80;5.35;;;29.80;66.80;;;;;;5015522;28;20057;-65
2021/07/20 11:50:39;;;;;;;9.85;5.10;;;29.90;63.60;;;;;;5016180;28;20036;-65
2021/07/20 11:53:22;;;;;;;8.02;4.90;;;29.80;62.90;;;;;;5033871;28;20187;-66
2021/07/20 11:56:10;;;;;;;7.25;5.38;;;29.80;64.50;;;;;;5043714;28;20064;-66
2021/07/20 11:58:55;;;;;;;6.93;4.88;;;30.00;65.60;;;;;;5051389;28;20064;-67
2021/07/20 12:02:05;;;;;;;6.30;5.10;;;30.30;62.50;;;;;;5052776;28;20116;-65
2021/07/20 12:04:50;;;;;;;;;;;30.00;62.60;;;;;;5038073;28;20091;-67
2021/07/20 12:07:38;;;;;;;7.28;5.47;;;29.10;63.70;;;;;;5051444;28;19905;-66
2021/07/20 12:10:28;;;;;;;5.72;5.13;;;29.20;66.80;;;;;;5054533;28;20021;-65
2021/07/20 12:13:02;;;;;;;6.57;5.15;;;28.50;63.30;;;;;;5055508;28;20154;-66
2021/07/20 12:15:28;;;;;;;9.35;5.63;;;28.50;65.90;;;;;;5055725;28;20036;-65
2021/07/20 12:17:56;;;;;;;5.72;5.18;;;29.00;65.80;;;;;;5054258;28;20028;-67
2021/07/20 12:20:24;;;;;;;6.60;5.50;;;29.20;66.10;;;;;;5052005;28;20442;-65
2021/07/20 12:22:52;;;;;;;17.55;6.03;;;29.70;65.10;;;;;;5051901;28;20055;-65
2021/07/20 12:25:20;;;;;;;12.23;5.88;;;29.80;64.60;;;;;;5051414;28;20463;-66
2021/07/20 12:27:49;;;;;;;8.27;5.38;;;30.20;64.40;;;;;;5050634;28;20183;-66
2021/07/20 12:30:18;;;;;;;8.35;5.18;;;30.40;62.60;;;;;;5052532;28;20080;-66
2021/07/20 12:32:45;;;;;;;8.60;5.55;;;30.10;61.50;;;;;;5051863;28;20036;-65
2021/07/20 12:35:17;;;;;;;5.30;4.80;;;30.10;64.20;;;;;;5050575;28;20036;-65
2021/07/20 12:37:43;;;;;;;7.40;4.65;;;30.20;64.70;;;;;;5052376;28;20419;-66
2021/07/20 12:40:11;;;;;;;8.70;5.97;;;30.00;65.40;;;;;;5052767;28;20029;-67
2021/07/20 12:42:40;;;;;;;7.80;5.03;;;30.10;63.30;;;;;;5050656;28;20033;-65
2021/07/20 12:45:07;;;;;;;9.43;5.22;;;30.40;63.90;;;;;;5052699;28;20052;-67
2021/07/20 12:47:49;;;;;;;7.30;5.45;;;30.90;65.80;;;;;;5052241;28;20127;-72
2021/07/20 12:50:18;;;;;;;6.57;5.45;;;30.90;62.00;;;;;;5051422;28;20029;-66
2021/07/20 12:52:46;;;;;;;7.15;4.95;;;29.80;63.20;;;;;;5051880;28;20187;-65
2021/07/20 12:55:14;;;;;;;7.82;5.43;;;30.30;64.30;;;;;;5041107;28;20050;-66
2021/07/20 12:57:50;;;;;;;7.63;5.03;;;30.50;62.80;;;;;;5031799;28;20064;-65
2021/07/20 13:00:27;;;;;;;8.60;5.18;;;30.60;61.50;;;;;;5014795;28;20121;-65
2021/07/20 13:02:57;;;;;;;10.38;5.68;;;30.60;62.20;;;;;;5031674;28;20064;-66